Hauptseite
METAR-TAF:

METAR-TAF

Flughäfen :

Fliegerhorst Schleswig

Schleswig-Jagel, Deutschland

Breite: 54-28N, Länge: 009-31E, Höhe: 22 m

Beobachtung

Neuester Wetterbericht von vor 33 Minuten, um 02:20 UTC
Wind 6 kt aus West/Südwest
Temperatur 15°C
Luftfeuchtigkeit 88%
Luftdruck 1015 hPa
Sichtweite: 7000 m

METAR: ETNS 180220Z AUTO 25006KT 7000 // ////// 15/13 Q1015 ///

Zeit: 04:53 (02:53 UTC)

Prognose

Neuester Wetterbericht von vor 11 Stunden und 33 Minuten, um 15:20 UTC
Gültige Prognose vom 17 um 14 UTC bis 17 um 23 UTC
Wind 12 kt aus West
Sichtweite: 1530 m
Leicht bewölkt in der Höhe von 6000 ft
Aufgelockert bewölkt in der Höhe von 30000 ft

TAF: ETNS 171520Z 1714/1723 26012KT 9999 NSW FEW060 SCT300 CANCEL 1530 BY ETGL

Wetterbeobachtungen und Prognosen von mehr als 4000 Flughäfen (METAR und TAF Bericht).

Die verfügbaren Stationen werden durch gelbe und rote Markierungen auf der Karte dargestellt.

Führen Sie die Maus auf sie, um den Namen der Station zu sehen.

Darauf klicken, um die Beobachtung von Wetterbeobachtungen und Prognosen zu sehen.

Um die Karte zu ändern : klicken Sie auf den grünen Tasten mit einem schwarzen Kreuz Zum Vergrößern, auf den grünen Button mit einem Gedankenstrich zu verkleinern, oder auf die grünen Pfeile für benachbarte Karten.


METAR-TAF: